Corinth, MS

6:07 AM CDT on May 27, 2017 (GMT -0500)
Downtown Corinth | | Change Station
Active Advisory: Severe Thunderstorm Watch

Elev 471 ft 34.93 °N, 88.51 °W | Updated 34 seconds ago

Clear
Clear
68.9 °F
Feels Like 68.9 °F
N
0.0
Wind Variable Wind from SSW
Gusts 0.0 mph

Today
High -- | Low -- °F
--% Chance of Precip.
Yesterday
High -- | Low -- °F
Precip. -- in
Pressure 29.93 in
Visibility 10.0 miles
Clouds Clear
Dew Point 65 °F
Humidity 87%
Rainfall 0.00 in
Snow Depth Not available.
5:43 AM 7:59 PM
Waxing Crescent, 4% visible
METAR KCRX 271055Z AUTO 16004KT 10SM CLR 21/18 A2993 RMK AO2
Pressure 29.93 in
Visibility 10.0 miles
Clouds Clear
Dew Point 65 °F
Humidity 87%
Rainfall 0.00 in
Snow Depth Not available.
5:43 AM 7:59 PM
Waxing Crescent, 4% visible
METAR KCRX 271055Z AUTO 16004KT 10SM CLR 21/18 A2993 RMK AO2

Get Your Daily Forecast Email!

Thanks for signing up!

Be on the lookout for a verification email in your inbox.

You'll start receiving severe weather alerts in your inbox..

×

10-Day Weather Forecast

Almanac

Astronomy

May. 27, 2017 Rise Set
Actual Time
Civil Twilight
Nautical Twilight
Astronomical Twilight
Moon
Length of Visible Light
Length of Day
Tomorrow will be .
, % of the Moon is Illuminated

Today's Extremes

State Highs State Lows

Community

WunderPhotos

Category 6

Welcome to Category 6. This is the collective home for Weather Underground's featured writeups by Dr. Jeff Masters (right), Bob Henson (left), Chris Burt, and other regular contributors.

Nearby

Air Quality

  Air Quality AQ Index Pollutant
Not available.

Snow Depth

Station Depth Elevation

Earthquake Activity

City Distance Mag. Time & Date
Minimum magnitude displayed is 2.5.

Coastal Water Temperatures

Place Temperature

Stations

Nearby Weather Stations

Station Location Temp. Windchill Dew Point Humidity Wind Precip. Elev Updated Type
                   

Watches & Warnings

Severe Thunderstorm Watch
Issued: 6:03 AM CDT May. 27, 2017 – National Weather Service

Severe Thunderstorm Watch 274 remains in effect until 1200 PM CDT

MS
. Mississippi counties included are

Alcorn Benton Marshall
Tippah Tishomingo